createdAt,value
2019-04-24T00:00:35.546Z,19.60
2019-04-24T00:03:22.072Z,23.77
2019-04-24T00:08:25.462Z,26.02
2019-04-24T00:19:01.582Z,21.52
2019-04-24T00:21:20.058Z,26.95
2019-04-24T00:23:50.644Z,21.45
2019-04-24T00:26:10.042Z,23.62
2019-04-24T00:28:44.373Z,22.40
2019-04-24T00:31:16.334Z,21.75
2019-04-24T00:36:29.264Z,21.02
2019-04-24T00:38:48.143Z,24.58
2019-04-24T00:41:12.985Z,23.15
2019-04-24T00:46:08.781Z,20.55
2019-04-24T00:48:29.285Z,21.35
2019-04-24T00:51:11.242Z,22.10
2019-04-24T00:56:03.910Z,26.85
2019-04-24T00:58:24.151Z,21.83
2019-04-24T01:01:35.081Z,20.25
2019-04-24T01:04:11.794Z,21.12
2019-04-24T01:06:36.084Z,21.30
2019-04-24T01:09:04.638Z,22.35
2019-04-24T01:14:17.668Z,21.70
2019-04-24T01:16:45.302Z,22.77
2019-04-24T01:21:49.423Z,22.85
2019-04-24T01:26:40.913Z,23.17
2019-04-24T01:34:24.865Z,23.45
2019-04-24T01:37:06.918Z,21.45
2019-04-24T01:39:53.779Z,21.45
2019-04-24T01:44:39.172Z,21.73
2019-04-24T01:47:16.619Z,23.20
2019-04-24T01:49:38.419Z,24.02
2019-04-24T01:52:17.773Z,25.37
2019-04-24T01:54:36.959Z,19.10
2019-04-24T01:57:01.659Z,18.00
2019-04-24T01:59:37.258Z,19.45
2019-04-24T02:02:02.478Z,22.77
2019-04-24T02:04:33.669Z,19.27
2019-04-24T02:07:19.870Z,19.25
2019-04-24T02:10:12.935Z,17.87
2019-04-24T02:12:29.072Z,20.52
2019-04-24T02:19:47.446Z,18.73
2019-04-24T02:22:24.217Z,20.42
2019-04-24T02:27:24.335Z,16.23
2019-04-24T02:35:24.548Z,20.10
2019-04-24T02:40:14.598Z,19.30
2019-04-24T02:50:13.421Z,18.67
2019-04-24T02:52:55.672Z,19.58
2019-04-24T02:55:13.558Z,21.00
2019-04-24T02:57:42.374Z,16.77
2019-04-24T03:00:24.108Z,20.50
2019-04-24T03:03:06.047Z,19.15
2019-04-24T03:05:21.153Z,20.77
2019-04-24T03:10:27.425Z,25.98
2019-04-24T03:15:29.235Z,18.23
2019-04-24T03:17:41.644Z,17.48
2019-04-24T03:20:23.180Z,24.63
2019-04-24T03:22:55.876Z,18.15
2019-04-24T03:26:15.249Z,19.25
2019-04-24T03:28:05.826Z,18.90
2019-04-24T03:36:14.539Z,15.70
2019-04-24T03:38:30.944Z,21.50
2019-04-24T03:43:31.850Z,18.80
2019-04-24T03:45:44.533Z,19.20
2019-04-24T03:48:47.107Z,22.62
2019-04-24T04:04:40.613Z,18.80
2019-04-24T04:07:04.766Z,16.25
2019-04-24T04:12:26.069Z,18.15
2019-04-24T04:19:42.151Z,16.73
2019-04-24T04:22:11.935Z,21.25
2019-04-24T04:24:35.277Z,17.15
2019-04-24T04:32:28.746Z,21.20
2019-04-24T04:37:28.311Z,18.00
2019-04-24T04:40:09.273Z,21.60
2019-04-24T04:42:56.950Z,17.95
2019-04-24T05:00:26.522Z,18.90
2019-04-24T05:03:36.226Z,18.27
2019-04-24T05:10:48.013Z,22.75
2019-04-24T05:13:13.440Z,23.52
2019-04-24T05:16:00.708Z,18.98
2019-04-24T05:23:29.730Z,19.77
2019-04-24T05:26:25.063Z,15.73
2019-04-24T05:28:50.931Z,16.37
2019-04-24T05:31:12.782Z,16.58
2019-04-24T05:33:38.626Z,15.13
2019-04-24T05:39:08.847Z,18.45
2019-04-24T05:41:13.141Z,17.50
2019-04-24T05:44:17.269Z,20.52
2019-04-24T05:46:21.646Z,15.95
2019-04-24T05:48:43.412Z,20.60
2019-04-24T05:56:28.526Z,20.65
2019-04-24T05:58:47.639Z,20.85
2019-04-24T06:04:48.069Z,16.67
2019-04-24T06:09:21.745Z,21.27
2019-04-24T06:12:00.828Z,17.98
2019-04-24T06:14:31.454Z,19.10
2019-04-24T06:17:17.493Z,21.20
2019-04-24T06:20:11.681Z,19.15
2019-04-24T06:22:14.013Z,17.83
2019-04-24T06:24:34.632Z,14.90
2019-04-24T06:29:51.187Z,19.70
2019-04-24T06:35:08.103Z,16.77
2019-04-24T06:37:25.846Z,20.48
2019-04-24T06:40:05.807Z,18.10
2019-04-24T06:42:33.856Z,22.17
2019-04-24T06:47:54.619Z,18.40
2019-04-24T06:50:26.680Z,16.20
2019-04-24T06:52:38.031Z,15.98
2019-04-24T06:57:23.140Z,20.60
2019-04-24T07:00:07.204Z,15.63
2019-04-24T07:02:35.053Z,17.83
2019-04-24T07:16:06.651Z,17.52
2019-04-24T07:18:31.135Z,23.95
2019-04-24T07:21:12.313Z,16.87
2019-04-24T07:23:49.660Z,23.38
2019-04-24T07:26:16.275Z,21.70
2019-04-24T07:31:41.139Z,16.37
2019-04-24T07:36:54.247Z,19.95
2019-04-24T07:39:29.680Z,18.65
2019-04-24T07:46:55.800Z,18.25
2019-04-24T07:49:33.840Z,14.75
2019-04-24T07:57:01.132Z,19.10
2019-04-24T07:59:52.928Z,16.02
2019-04-24T08:04:36.852Z,14.20
2019-04-24T08:07:08.316Z,15.68
2019-04-24T08:15:04.861Z,15.38
2019-04-24T08:17:13.250Z,14.02
2019-04-24T08:22:07.115Z,14.15
2019-04-24T08:24:50.924Z,15.27
2019-04-24T08:27:07.216Z,13.80
2019-04-24T08:29:37.295Z,13.73
2019-04-24T08:34:39.467Z,14.00
2019-04-24T08:37:10.408Z,12.32
2019-04-24T08:40:05.002Z,12.15
2019-04-24T08:42:56.993Z,15.18
2019-04-24T08:45:24.810Z,13.62
2019-04-24T08:50:57.489Z,13.43
2019-04-24T08:55:26.129Z,15.77
2019-04-24T09:00:33.186Z,8.88
2019-04-24T09:05:56.307Z,11.82
2019-04-24T09:14:23.276Z,13.23
2019-04-24T09:16:44.368Z,13.15
2019-04-24T09:19:02.729Z,8.45
2019-04-24T09:21:33.624Z,8.80
2019-04-24T09:24:38.369Z,9.65
2019-04-24T09:29:49.514Z,12.98
2019-04-24T09:32:26.517Z,11.57
2019-04-24T09:34:19.131Z,8.90
2019-04-24T09:37:10.186Z,8.45
2019-04-24T09:45:01.389Z,15.75
2019-04-24T09:47:40.219Z,8.77
2019-04-24T09:49:50.976Z,9.43
2019-04-24T09:52:15.868Z,10.18
2019-04-24T09:55:08.910Z,18.37
2019-04-24T09:57:38.486Z,6.62
2019-04-24T09:59:54.081Z,10.40
2019-04-24T10:05:09.886Z,10.55
2019-04-24T10:07:34.886Z,14.27
2019-04-24T10:10:03.455Z,11.55
2019-04-24T10:15:05.913Z,11.90
2019-04-24T10:17:33.238Z,11.05
2019-04-24T10:20:15.352Z,8.60
2019-04-24T10:27:52.384Z,12.77
2019-04-24T10:30:36.632Z,8.63
2019-04-24T10:33:26.726Z,14.10
2019-04-24T10:36:51.983Z,11.85
2019-04-24T10:39:02.715Z,11.00
2019-04-24T10:44:41.689Z,8.57
2019-04-24T10:50:27.709Z,10.35
2019-04-24T10:53:03.807Z,7.87
2019-04-24T10:55:44.016Z,7.45
2019-04-24T11:00:29.591Z,8.85
2019-04-24T11:05:46.862Z,8.40
2019-04-24T11:08:29.243Z,10.90
2019-04-24T11:11:00.986Z,11.30
2019-04-24T11:13:56.561Z,6.87
2019-04-24T11:16:55.820Z,5.78
2019-04-24T11:19:20.346Z,3.67
2019-04-24T11:24:19.789Z,9.80
2019-04-24T11:26:45.678Z,4.50
2019-04-24T11:29:27.002Z,5.35
2019-04-24T11:32:22.891Z,5.75
2019-04-24T11:35:04.337Z,6.80
2019-04-24T11:37:32.447Z,11.68
2019-04-24T11:42:45.870Z,6.93
2019-04-24T11:45:28.351Z,8.45
2019-04-24T11:51:06.767Z,5.65
2019-04-24T12:00:26.389Z,6.10
2019-04-24T12:03:32.839Z,4.80
2019-04-24T12:06:18.398Z,3.35
2019-04-24T12:11:11.269Z,6.37
2019-04-24T12:13:54.859Z,9.98
2019-04-24T12:16:46.954Z,3.97
2019-04-24T12:19:18.574Z,8.02
2019-04-24T12:22:10.052Z,6.25
2019-04-24T12:24:44.690Z,9.45
2019-04-24T12:27:06.689Z,4.10
2019-04-24T12:34:47.596Z,7.07
2019-04-24T12:40:11.487Z,5.72
2019-04-24T12:42:33.150Z,5.00
2019-04-24T12:44:50.401Z,4.22
2019-04-24T12:50:03.566Z,17.33
2019-04-24T12:52:19.631Z,8.32
2019-04-24T12:55:09.491Z,7.68
2019-04-24T13:00:03.274Z,7.55
2019-04-24T13:03:12.470Z,9.68
2019-04-24T13:05:35.489Z,4.55
2019-04-24T13:13:45.154Z,6.62
2019-04-24T13:16:01.128Z,5.50
2019-04-24T13:18:37.242Z,6.03
2019-04-24T13:20:36.562Z,7.78
2019-04-24T13:23:11.723Z,4.07
2019-04-24T13:26:01.459Z,4.65
2019-04-24T13:29:05.082Z,5.40
2019-04-24T13:31:23.655Z,7.85
2019-04-24T13:33:54.609Z,4.00
2019-04-24T13:36:32.541Z,3.67
2019-04-24T13:41:16.565Z,6.72
2019-04-24T13:46:06.122Z,6.30
2019-04-24T13:51:08.426Z,5.37
2019-04-24T13:56:20.703Z,7.72
2019-04-24T13:58:37.204Z,3.40
2019-04-24T14:06:28.363Z,5.15
2019-04-24T14:13:55.718Z,4.15
2019-04-24T14:18:46.140Z,3.75
2019-04-24T14:21:13.249Z,8.07
2019-04-24T14:24:06.182Z,5.05
2019-04-24T14:28:45.262Z,3.95
2019-04-24T14:31:11.902Z,4.40
2019-04-24T14:33:42.064Z,5.82
2019-04-24T14:36:15.352Z,4.03
2019-04-24T14:39:02.306Z,11.02
2019-04-24T14:41:07.667Z,4.75
2019-04-24T14:46:16.864Z,6.53
2019-04-24T14:48:34.936Z,4.87
2019-04-24T14:50:54.493Z,6.18
2019-04-24T14:53:28.472Z,3.87
2019-04-24T15:00:56.622Z,7.80
2019-04-24T15:03:21.337Z,5.20
2019-04-24T15:05:59.298Z,8.52
2019-04-24T15:08:19.031Z,7.65
2019-04-24T15:10:45.577Z,8.60
2019-04-24T15:13:23.572Z,9.73
2019-04-24T15:15:51.546Z,6.30
2019-04-24T15:18:19.811Z,12.13
2019-04-24T15:20:48.615Z,5.95
2019-04-24T15:23:19.126Z,6.53
2019-04-24T15:30:43.938Z,4.65
2019-04-24T15:33:08.453Z,7.18
2019-04-24T15:35:36.495Z,4.87
2019-04-24T15:38:14.668Z,5.07
2019-04-24T15:40:43.083Z,7.20
2019-04-24T15:43:14.550Z,6.53
2019-04-24T15:45:32.301Z,4.97
2019-04-24T15:50:33.383Z,4.28
2019-04-24T15:52:24.632Z,4.97
2019-04-24T15:54:52.089Z,2.28
2019-04-24T15:57:21.410Z,2.50
2019-04-24T16:00:13.067Z,5.18
2019-04-24T16:04:54.753Z,4.65
2019-04-24T16:07:26.955Z,7.28
2019-04-24T16:09:58.790Z,5.70
2019-04-24T16:12:26.087Z,6.68
2019-04-24T16:15:20.965Z,5.53
2019-04-24T16:20:21.977Z,5.85
2019-04-24T16:22:47.017Z,2.90
2019-04-24T16:25:30.054Z,3.95
2019-04-24T16:27:53.408Z,2.87
2019-04-24T16:32:52.476Z,9.88
2019-04-24T16:37:45.566Z,9.02
2019-04-24T16:43:12.947Z,7.37
2019-04-24T16:52:44.116Z,9.00
2019-04-24T16:55:12.045Z,4.45
2019-04-24T16:58:00.611Z,8.52
2019-04-24T17:00:13.742Z,4.10
2019-04-24T17:02:46.099Z,6.05
2019-04-24T17:05:16.710Z,4.72
2019-04-24T17:10:05.267Z,8.38
2019-04-24T17:12:29.204Z,7.10
2019-04-24T17:15:08.088Z,4.03
2019-04-24T17:20:08.176Z,7.78
2019-04-24T17:22:44.986Z,8.37
2019-04-24T17:25:16.571Z,6.30
2019-04-24T17:27:29.603Z,4.25
2019-04-24T17:30:14.963Z,4.62
2019-04-24T17:32:29.082Z,2.97
2019-04-24T17:36:56.647Z,4.97
2019-04-24T17:39:34.367Z,4.95
2019-04-24T17:42:12.569Z,3.42
2019-04-24T17:47:30.315Z,4.22
2019-04-24T17:50:13.142Z,4.87
2019-04-24T17:52:38.478Z,7.60
2019-04-24T17:54:43.755Z,9.05
2019-04-24T17:57:19.197Z,5.55
2019-04-24T17:59:19.648Z,6.07
2019-04-24T18:01:47.405Z,8.77
2019-04-24T18:04:16.197Z,12.23
2019-04-24T18:06:44.252Z,5.40
2019-04-24T18:09:13.271Z,4.37
2019-04-24T18:11:42.045Z,2.85
2019-04-24T18:14:08.894Z,3.75
2019-04-24T18:16:37.271Z,1.30
2019-04-24T18:19:05.457Z,2.10
2019-04-24T18:21:33.624Z,1.40
2019-04-24T18:24:02.368Z,4.78
2019-04-24T18:26:37.855Z,1.40
2019-04-24T18:29:05.935Z,3.53
2019-04-24T18:31:33.980Z,1.25
2019-04-24T18:34:02.110Z,0.82
2019-04-24T18:36:30.055Z,1.48
2019-04-24T18:38:57.603Z,0.85
2019-04-24T18:41:25.798Z,4.43
2019-04-24T18:43:53.955Z,3.92
2019-04-24T18:46:23.272Z,2.53
2019-04-24T18:48:50.486Z,1.02
2019-04-24T18:51:18.756Z,1.48
2019-04-24T18:53:46.853Z,1.70
2019-04-24T18:56:15.645Z,1.60
2019-04-24T18:58:43.207Z,2.30
2019-04-24T19:01:12.373Z,2.90
2019-04-24T19:03:39.447Z,0.98
2019-04-24T19:06:19.998Z,2.75
2019-04-24T19:08:35.467Z,1.00
2019-04-24T19:11:04.005Z,1.92
2019-04-24T19:13:32.231Z,4.25
2019-04-24T19:16:01.880Z,4.55
2019-04-24T19:18:28.386Z,3.92
2019-04-24T19:20:56.158Z,1.77
2019-04-24T19:23:24.175Z,4.20
2019-04-24T19:25:53.277Z,4.25
2019-04-24T19:28:21.566Z,2.72
2019-04-24T19:30:49.646Z,4.60
2019-04-24T19:33:20.165Z,1.95
2019-04-24T19:35:45.682Z,2.53
2019-04-24T19:38:13.766Z,3.53
2019-04-24T19:40:42.631Z,4.40
2019-04-24T19:43:10.641Z,1.50
2019-04-24T19:45:38.094Z,2.10
2019-04-24T19:48:06.281Z,2.78
2019-04-24T19:50:34.109Z,2.08
2019-04-24T19:53:13.849Z,2.95
2019-04-24T19:55:32.146Z,1.52
2019-04-24T19:57:58.910Z,2.95
2019-04-24T20:00:26.716Z,3.12
2019-04-24T20:02:54.802Z,4.25
2019-04-24T20:05:23.663Z,1.85
2019-04-24T20:07:50.839Z,2.92
2019-04-24T20:10:39.368Z,3.03
2019-04-24T20:13:07.233Z,3.95
2019-04-24T20:15:35.412Z,2.60
2019-04-24T20:18:03.785Z,3.30
2019-04-24T20:20:31.756Z,2.92
2019-04-24T20:22:59.534Z,2.92
2019-04-24T20:25:27.709Z,3.62
2019-04-24T20:27:55.765Z,2.05
2019-04-24T20:30:24.185Z,2.67
2019-04-24T20:32:51.820Z,2.83
2019-04-24T20:35:20.727Z,2.10
2019-04-24T20:37:48.082Z,2.37
2019-04-24T20:40:17.131Z,3.03
2019-04-24T20:42:44.598Z,1.73
2019-04-24T20:45:13.292Z,1.83
2019-04-24T20:47:41.400Z,2.40
2019-04-24T20:50:09.239Z,3.97
2019-04-24T20:52:37.510Z,3.55
2019-04-24T20:55:05.722Z,2.15
2019-04-24T20:57:34.053Z,3.05
2019-04-24T21:00:02.741Z,3.87
2019-04-24T21:02:30.843Z,2.87
2019-04-24T21:05:01.020Z,2.53
2019-04-24T21:07:36.779Z,2.10
2019-04-24T21:10:08.252Z,2.15
2019-04-24T21:12:36.308Z,5.47
2019-04-24T21:15:24.767Z,2.00
2019-04-24T21:17:52.950Z,2.45
2019-04-24T21:20:22.918Z,3.00
2019-04-24T21:22:51.045Z,3.75
2019-04-24T21:25:17.860Z,2.12
2019-04-24T21:27:45.942Z,2.85
2019-04-24T21:30:14.814Z,1.40
2019-04-24T21:32:43.398Z,2.78
2019-04-24T21:35:11.568Z,1.92
2019-04-24T21:37:40.237Z,2.12
2019-04-24T21:40:08.357Z,3.62
2019-04-24T21:42:36.520Z,3.15
2019-04-24T21:45:05.205Z,2.22
2019-04-24T21:47:33.396Z,2.08
2019-04-24T21:50:01.658Z,2.30
2019-04-24T21:52:30.532Z,3.83
2019-04-24T21:54:58.018Z,4.60
2019-04-24T21:57:27.033Z,2.83
2019-04-24T21:59:54.519Z,2.50
2019-04-24T22:02:29.781Z,2.67
2019-04-24T22:05:05.762Z,2.85
2019-04-24T22:07:37.158Z,3.67
2019-04-24T22:10:06.064Z,2.78
2019-04-24T22:12:34.808Z,3.12
2019-04-24T22:15:02.432Z,3.33
2019-04-24T22:17:31.319Z,3.42
2019-04-24T22:19:58.693Z,3.60
2019-04-24T22:22:55.283Z,4.32
2019-04-24T22:25:39.489Z,3.42
2019-04-24T22:28:07.661Z,3.90
2019-04-24T22:30:45.179Z,2.55
2019-04-24T22:33:13.309Z,4.12
2019-04-24T22:35:42.288Z,2.50
2019-04-24T22:38:11.008Z,4.18
2019-04-24T22:40:54.020Z,3.17
2019-04-24T22:43:22.147Z,4.15
2019-04-24T22:45:49.676Z,2.33
2019-04-24T22:48:17.915Z,2.55
2019-04-24T22:50:45.975Z,5.65
2019-04-24T22:53:13.799Z,2.30
2019-04-24T22:55:41.969Z,2.55
2019-04-24T22:58:10.155Z,2.78
2019-04-24T23:00:38.616Z,2.80
2019-04-24T23:03:06.434Z,4.25
2019-04-24T23:05:35.037Z,2.95
2019-04-24T23:08:02.484Z,2.25
2019-04-24T23:10:37.316Z,3.28
2019-04-24T23:12:58.641Z,3.55
2019-04-24T23:15:26.749Z,3.60
2019-04-24T23:17:55.387Z,3.15
2019-04-24T23:20:27.286Z,2.17
2019-04-24T23:23:07.610Z,2.90
2019-04-24T23:25:53.407Z,3.35
2019-04-24T23:28:26.380Z,4.82
2019-04-24T23:31:06.603Z,2.90
2019-04-24T23:33:39.256Z,2.90
2019-04-24T23:36:06.453Z,2.50
2019-04-24T23:38:35.684Z,2.97
2019-04-24T23:41:02.928Z,3.80
2019-04-24T23:43:31.026Z,3.53
2019-04-24T23:45:59.177Z,3.37
2019-04-24T23:48:26.945Z,4.35
2019-04-24T23:50:55.102Z,3.67
2019-04-24T23:53:23.207Z,3.28
2019-04-24T23:55:51.472Z,3.30
2019-04-24T23:58:19.526Z,3.08
